createdAt,value
2023-10-15T00:00:52.955Z,99922.48
2023-10-15T00:03:41.684Z,99922.98
2023-10-15T00:06:10.174Z,99924.04
2023-10-15T00:08:38.588Z,99926.67
2023-10-15T00:11:14.429Z,99927.69
2023-10-15T00:13:42.836Z,99928.56
2023-10-15T00:16:22.165Z,99932.63
2023-10-15T00:18:51.181Z,99932.87
2023-10-15T00:21:19.612Z,99934.64
2023-10-15T00:23:48.336Z,99935.56
2023-10-15T00:26:17.001Z,99937.56
2023-10-15T00:28:48.202Z,99933.92
2023-10-15T00:31:17.361Z,99932.05
2023-10-15T00:33:47.860Z,99931.90
2023-10-15T00:36:16.631Z,99930.77
2023-10-15T00:38:45.784Z,99923.28
2023-10-15T00:41:15.411Z,99923.49
2023-10-15T00:43:52.498Z,99927.13
2023-10-15T00:46:21.036Z,99930.04
2023-10-15T00:48:50.290Z,99932.22
2023-10-15T00:51:21.272Z,99932.44
2023-10-15T00:54:00.151Z,99934.20
2023-10-15T00:56:34.887Z,99936.12
2023-10-15T00:59:09.958Z,99939.71
2023-10-15T01:01:43.989Z,99940.11
2023-10-15T01:04:16.813Z,99938.67
2023-10-15T01:06:50.958Z,99940.20
2023-10-15T01:09:28.912Z,99937.67
2023-10-15T01:11:59.844Z,99936.45
2023-10-15T01:14:33.818Z,99937.41
2023-10-15T01:17:03.468Z,99939.77
2023-10-15T01:19:35.128Z,99936.34
2023-10-15T01:22:11.741Z,99942.38
2023-10-15T01:24:43.226Z,99939.91
2023-10-15T01:27:12.982Z,99940.19
2023-10-15T01:29:45.500Z,99935.98
2023-10-15T01:32:20.487Z,99937.67
2023-10-15T01:34:54.421Z,99943.21
2023-10-15T01:37:25.923Z,99948.61
2023-10-15T01:40:11.910Z,99948.55
2023-10-15T01:42:42.950Z,99955.84
2023-10-15T01:45:14.387Z,99955.64
2023-10-15T01:48:05.719Z,99956.23
2023-10-15T01:50:41.965Z,99952.38
2023-10-15T01:53:10.461Z,99951.71
2023-10-15T01:55:46.987Z,99956.46
2023-10-15T01:58:15.527Z,99957.94
2023-10-15T02:00:43.878Z,99959.45
2023-10-15T02:03:13.082Z,99960.80
2023-10-15T02:05:47.846Z,99959.98
2023-10-15T02:08:23.836Z,99954.39
2023-10-15T02:10:56.414Z,99951.39
2023-10-15T02:13:27.931Z,99949.79
2023-10-15T02:15:57.564Z,99947.53
2023-10-15T02:18:31.072Z,99951.28
2023-10-15T02:20:59.513Z,99949.98
2023-10-15T02:23:29.279Z,99950.06
2023-10-15T02:25:59.795Z,99952.52
2023-10-15T02:28:33.021Z,99951.17
2023-10-15T02:31:05.692Z,99954.61
2023-10-15T02:33:34.404Z,99955.55
2023-10-15T02:36:10.257Z,99955.86
2023-10-15T02:38:40.215Z,99960.09
2023-10-15T02:41:08.765Z,99960.41
2023-10-15T02:43:49.600Z,99962.95
2023-10-15T02:46:24.587Z,99968.30
2023-10-15T02:48:56.160Z,99973.75
2023-10-15T02:51:24.814Z,99977.05
2023-10-15T02:53:55.407Z,99977.08
2023-10-15T02:56:24.345Z,99977.12
2023-10-15T02:58:52.834Z,99976.86
2023-10-15T03:01:21.623Z,99980.61
2023-10-15T03:03:56.308Z,99975.31
2023-10-15T03:06:29.876Z,99975.34
2023-10-15T03:08:59.358Z,99975.05
2023-10-15T03:11:33.509Z,99984.59
2023-10-15T03:14:02.328Z,99981.53
2023-10-15T03:16:34.138Z,99985.70
2023-10-15T03:19:20.175Z,99991.23
2023-10-15T03:21:48.698Z,99992.64
2023-10-15T03:24:19.101Z,99992.43
2023-10-15T03:26:50.550Z,99997.74
2023-10-15T03:29:22.904Z,100004.21
2023-10-15T03:31:55.697Z,100006.72
2023-10-15T03:34:24.882Z,100004.78
2023-10-15T03:36:59.464Z,100007.98
2023-10-15T03:39:34.274Z,100006.50
2023-10-15T03:42:18.817Z,100005.05
2023-10-15T03:44:50.133Z,100004.92
2023-10-15T03:47:24.195Z,100006.92
2023-10-15T03:49:53.027Z,100006.85
2023-10-15T03:52:21.831Z,100008.95
2023-10-15T03:54:51.399Z,100006.81
2023-10-15T03:57:29.067Z,100006.17
2023-10-15T03:59:57.595Z,100007.55
2023-10-15T04:02:49.483Z,100003.77
2023-10-15T04:07:54.648Z,100006.40
2023-10-15T04:10:33.034Z,100003.98
2023-10-15T04:13:02.331Z,100004.58
2023-10-15T04:15:31.982Z,100008.32
2023-10-15T04:18:00.969Z,100002.33
2023-10-15T04:20:37.103Z,100000.11
2023-10-15T04:23:05.815Z,99999.90
2023-10-15T04:25:34.721Z,99998.45
2023-10-15T04:28:13.248Z,99988.19
2023-10-15T04:30:42.005Z,99991.43
2023-10-15T04:33:16.695Z,99991.70
2023-10-15T04:35:45.155Z,99993.98
2023-10-15T04:38:31.899Z,99993.06
2023-10-15T04:41:00.393Z,99991.15
2023-10-15T04:43:29.881Z,99990.25
2023-10-15T04:45:58.676Z,99986.39
2023-10-15T04:48:38.011Z,99986.71
2023-10-15T04:51:07.013Z,99986.46
2023-10-15T04:53:35.321Z,99983.82
2023-10-15T04:56:06.062Z,99987.55
2023-10-15T04:58:35.978Z,99987.35
2023-10-15T05:01:07.487Z,99991.78
2023-10-15T05:03:40.401Z,99993.03
2023-10-15T05:06:12.344Z,99998.27
2023-10-15T05:08:48.598Z,99998.00
2023-10-15T05:11:23.165Z,99995.14
2023-10-15T05:13:52.428Z,99996.02
2023-10-15T05:16:20.853Z,100006.52
2023-10-15T05:18:49.334Z,100005.42
2023-10-15T05:21:17.725Z,100008.64
2023-10-15T05:23:47.170Z,100015.15
2023-10-15T05:26:17.366Z,100017.95
2023-10-15T05:28:45.966Z,100023.05
2023-10-15T05:31:14.464Z,100025.30
2023-10-15T05:33:42.859Z,100026.02
2023-10-15T05:36:11.197Z,100027.27
2023-10-15T05:38:39.564Z,100027.55
2023-10-15T05:41:08.156Z,100028.80
2023-10-15T05:43:37.594Z,100036.23
2023-10-15T05:46:05.957Z,100034.15
2023-10-15T05:48:34.336Z,100040.70
2023-10-15T05:51:04.546Z,100036.42
2023-10-15T05:53:33.825Z,100038.70
2023-10-15T05:56:02.256Z,100040.65
2023-10-15T05:58:30.664Z,100038.60
2023-10-15T06:00:59.193Z,100043.88
2023-10-15T06:03:27.726Z,100043.66
2023-10-15T06:05:59.888Z,100042.34
2023-10-15T06:08:28.278Z,100042.84
2023-10-15T06:10:56.582Z,100046.58
2023-10-15T06:13:25.024Z,100049.19
2023-10-15T06:15:53.423Z,100051.05
2023-10-15T06:18:21.879Z,100053.63
2023-10-15T06:20:50.408Z,100052.60
2023-10-15T06:23:19.408Z,100057.80
2023-10-15T06:25:47.900Z,100061.29
2023-10-15T06:28:16.705Z,100065.14
2023-10-15T06:30:45.717Z,100068.85
2023-10-15T06:33:14.798Z,100068.88
2023-10-15T06:35:44.240Z,100072.23
2023-10-15T06:38:12.879Z,100071.51
2023-10-15T06:40:41.340Z,100074.84
2023-10-15T06:43:09.742Z,100076.42
2023-10-15T06:45:38.039Z,100075.90
2023-10-15T06:48:06.998Z,100076.45
2023-10-15T06:50:35.473Z,100076.08
2023-10-15T06:53:06.608Z,100076.50
2023-10-15T06:55:36.449Z,100080.60
2023-10-15T06:58:04.950Z,100077.89
2023-10-15T07:00:33.597Z,100080.92
2023-10-15T07:03:02.163Z,100081.98
2023-10-15T07:05:31.035Z,100081.03
2023-10-15T07:08:00.198Z,100087.70
2023-10-15T07:10:29.939Z,100089.78
2023-10-15T07:12:58.582Z,100090.08
2023-10-15T07:15:27.087Z,100094.57
2023-10-15T07:17:55.974Z,100088.20
2023-10-15T07:20:29.208Z,100090.52
2023-10-15T07:23:01.466Z,100086.23
2023-10-15T07:25:30.414Z,100088.03
2023-10-15T07:28:00.720Z,100090.35
2023-10-15T07:30:32.127Z,100094.28
2023-10-15T07:33:01.107Z,100092.65
2023-10-15T07:35:31.927Z,100088.33
2023-10-15T07:38:04.288Z,100089.05
2023-10-15T07:40:36.125Z,100090.43
2023-10-15T07:43:06.012Z,100087.27
2023-10-15T07:45:34.917Z,100085.58
2023-10-15T07:48:06.004Z,100088.81
2023-10-15T07:50:36.186Z,100085.38
2023-10-15T07:53:06.052Z,100088.16
2023-10-15T07:55:35.042Z,100090.36
2023-10-15T07:58:03.782Z,100090.01
2023-10-15T08:00:32.550Z,100092.40
2023-10-15T08:03:02.135Z,100098.48
2023-10-15T08:05:34.442Z,100099.49
2023-10-15T08:08:06.514Z,100099.52
2023-10-15T08:10:37.814Z,100101.94
2023-10-15T08:13:10.203Z,100105.59
2023-10-15T08:15:39.750Z,100096.40
2023-10-15T08:18:08.900Z,100094.04
2023-10-15T08:20:37.451Z,100090.23
2023-10-15T08:23:06.032Z,100098.36
2023-10-15T08:25:35.064Z,100094.95
2023-10-15T08:28:04.993Z,100098.84
2023-10-15T08:30:34.466Z,100098.91
2023-10-15T08:33:05.231Z,100104.96
2023-10-15T08:35:34.292Z,100111.11
2023-10-15T08:38:02.936Z,100103.50
2023-10-15T08:40:38.242Z,100103.61
2023-10-15T08:43:21.379Z,100105.24
2023-10-15T08:45:50.305Z,100116.41
2023-10-15T08:48:19.761Z,100110.27
2023-10-15T08:50:49.341Z,100112.63
2023-10-15T08:53:17.871Z,100114.25
2023-10-15T08:55:46.785Z,100112.88
2023-10-15T08:58:17.005Z,100111.54
2023-10-15T09:00:48.581Z,100123.58
2023-10-15T09:03:18.441Z,100113.12
2023-10-15T09:05:46.991Z,100114.63
2023-10-15T09:08:16.090Z,100114.86
2023-10-15T09:10:45.032Z,100110.48
2023-10-15T09:13:18.370Z,100110.61
2023-10-15T09:15:49.825Z,100120.30
2023-10-15T09:18:19.198Z,100117.23
2023-10-15T09:20:53.324Z,100108.99
2023-10-15T09:23:25.300Z,100107.82
2023-10-15T09:25:57.229Z,100105.73
2023-10-15T09:28:31.828Z,100104.52
2023-10-15T09:31:10.424Z,100104.16
2023-10-15T09:33:40.629Z,100105.38
2023-10-15T09:36:09.655Z,100104.50
2023-10-15T09:38:38.686Z,100099.25
2023-10-15T09:41:07.684Z,100098.05
2023-10-15T09:43:37.590Z,100095.00
2023-10-15T09:46:10.790Z,100094.77
2023-10-15T09:48:40.557Z,100089.50
2023-10-15T09:51:10.958Z,100085.95
2023-10-15T09:53:43.318Z,100081.33
2023-10-15T09:56:13.956Z,100075.54
2023-10-15T09:58:44.402Z,100086.77
2023-10-15T10:01:29.618Z,100081.27
2023-10-15T10:04:41.763Z,100084.59
2023-10-15T10:07:39.909Z,100082.47
2023-10-15T10:10:33.082Z,100085.83
2023-10-15T10:14:03.958Z,100074.63
2023-10-15T10:16:33.045Z,100073.30
2023-10-15T10:19:03.174Z,100072.51
2023-10-15T10:21:33.220Z,100064.97
2023-10-15T10:24:04.097Z,100069.92
2023-10-15T10:26:33.686Z,100063.19
2023-10-15T10:29:03.464Z,100068.97
2023-10-15T10:31:36.306Z,100059.27
2023-10-15T10:34:04.916Z,100057.22
2023-10-15T10:36:53.357Z,100051.58
2023-10-15T10:39:23.649Z,100056.90
2023-10-15T10:42:00.375Z,100053.58
2023-10-15T10:44:29.319Z,100056.75
2023-10-15T10:46:58.348Z,100048.56
2023-10-15T10:49:41.628Z,100044.73
2023-10-15T10:52:16.796Z,100046.49
2023-10-15T10:54:48.667Z,100040.20
2023-10-15T10:57:21.871Z,100048.18
2023-10-15T10:59:50.561Z,100050.35
2023-10-15T11:02:19.723Z,100053.48
2023-10-15T11:04:48.901Z,100056.41
2023-10-15T11:07:18.036Z,100049.18
2023-10-15T11:09:46.485Z,100047.15
2023-10-15T11:12:17.751Z,100051.41
2023-10-15T11:14:46.280Z,100048.15
2023-10-15T11:17:16.062Z,100047.27
2023-10-15T11:19:44.506Z,100049.70
2023-10-15T11:22:15.301Z,100052.15
2023-10-15T11:24:46.553Z,100036.14
2023-10-15T11:27:15.046Z,100033.34
2023-10-15T11:29:45.226Z,100034.08
2023-10-15T11:32:14.208Z,100028.55
2023-10-15T11:34:43.996Z,100023.17
2023-10-15T11:37:14.957Z,100021.71
2023-10-15T11:39:49.325Z,100019.52
2023-10-15T11:42:20.649Z,100013.20
2023-10-15T11:44:57.191Z,100009.85
2023-10-15T11:47:26.697Z,100016.63
2023-10-15T11:49:55.325Z,100009.95
2023-10-15T11:52:24.220Z,100012.77
2023-10-15T11:54:53.319Z,100019.38
2023-10-15T11:57:27.537Z,100023.10
2023-10-15T11:59:59.005Z,100017.88
2023-10-15T12:02:30.185Z,100027.14
2023-10-15T12:05:02.881Z,100017.79
2023-10-15T12:07:31.830Z,100014.54
2023-10-15T12:10:01.317Z,100020.36
2023-10-15T12:12:29.959Z,100023.17
2023-10-15T12:14:58.872Z,100026.67
2023-10-15T12:17:27.876Z,100021.26
2023-10-15T12:20:12.420Z,100023.16
2023-10-15T12:22:47.762Z,100026.35
2023-10-15T12:25:16.183Z,100017.91
2023-10-15T12:27:44.773Z,100018.52
2023-10-15T12:30:28.416Z,100020.11
2023-10-15T12:32:59.572Z,100020.27
2023-10-15T12:35:28.834Z,100019.92
2023-10-15T12:38:03.470Z,100023.80
2023-10-15T12:40:35.096Z,100023.28
2023-10-15T12:43:10.108Z,100024.59
2023-10-15T12:45:39.003Z,100015.58
2023-10-15T12:48:09.614Z,100017.58
2023-10-15T12:50:38.780Z,100016.17
2023-10-15T12:53:07.295Z,100010.85
2023-10-15T12:55:35.665Z,100010.63
2023-10-15T12:58:04.430Z,100010.04
2023-10-15T13:00:34.105Z,100009.31
2023-10-15T13:03:04.645Z,100012.96
2023-10-15T13:05:34.254Z,100010.34
2023-10-15T13:08:04.525Z,100015.48
2023-10-15T13:10:33.670Z,100018.88
2023-10-15T13:13:02.769Z,100017.85
2023-10-15T13:15:31.272Z,100021.39
2023-10-15T13:18:00.413Z,100017.19
2023-10-15T13:20:28.954Z,100023.34
2023-10-15T13:22:57.527Z,100020.77
2023-10-15T13:25:26.009Z,100023.02
2023-10-15T13:27:54.497Z,100021.92
2023-10-15T13:30:23.808Z,100019.71
2023-10-15T13:32:52.509Z,100025.38
2023-10-15T13:35:21.074Z,100026.38
2023-10-15T13:37:49.717Z,100026.96
2023-10-15T13:40:20.136Z,100041.67
2023-10-15T13:42:49.571Z,100034.48
2023-10-15T13:45:19.456Z,100036.77
2023-10-15T13:47:48.501Z,100036.17
2023-10-15T13:50:20.063Z,100033.14
2023-10-15T13:52:49.180Z,100020.03
2023-10-15T13:55:18.004Z,100020.13
2023-10-15T13:57:46.979Z,100020.94
2023-10-15T14:03:11.439Z,100034.12
2023-10-15T14:05:42.804Z,100031.07
2023-10-15T14:08:13.701Z,100032.93
2023-10-15T14:10:42.670Z,100035.66
2023-10-15T14:15:45.733Z,100015.98
2023-10-15T14:18:14.173Z,100017.45
2023-10-15T14:20:42.573Z,100018.34
2023-10-15T14:23:11.027Z,100023.38
2023-10-15T14:25:39.673Z,100014.69
2023-10-15T14:28:10.116Z,100016.63
2023-10-15T14:30:38.581Z,100023.83
2023-10-15T14:33:07.811Z,100025.89
2023-10-15T14:35:36.458Z,100030.01
2023-10-15T14:38:06.379Z,100027.50
2023-10-15T14:40:35.754Z,100028.02
2023-10-15T14:43:04.996Z,100029.58
2023-10-15T14:45:35.136Z,100040.20
2023-10-15T14:48:05.251Z,100036.13
2023-10-15T14:50:35.965Z,100039.51
2023-10-15T14:53:07.516Z,100053.76
2023-10-15T14:55:36.664Z,100050.45
2023-10-15T14:58:07.986Z,100048.89
2023-10-15T15:00:36.504Z,100055.27
2023-10-15T15:03:05.975Z,100059.46
2023-10-15T15:05:36.330Z,100062.44
2023-10-15T15:08:06.490Z,100063.75
2023-10-15T15:10:38.317Z,100071.39
2023-10-15T15:16:22.890Z,100086.12
2023-10-15T15:18:51.381Z,100082.52
2023-10-15T15:21:19.937Z,100078.45
2023-10-15T15:23:48.347Z,100081.11
2023-10-15T15:26:16.897Z,100076.34
2023-10-15T15:28:45.376Z,100076.48
2023-10-15T15:31:13.991Z,100075.70
2023-10-15T15:33:43.169Z,100080.55
2023-10-15T15:36:12.205Z,100079.82
2023-10-15T15:38:40.656Z,100087.32
2023-10-15T15:41:09.703Z,100090.27
2023-10-15T15:43:39.047Z,100086.95
2023-10-15T15:46:13.462Z,100088.48
2023-10-15T15:48:42.287Z,100088.19
2023-10-15T15:51:12.934Z,100100.42
2023-10-15T15:53:41.563Z,100100.55
2023-10-15T15:56:10.197Z,100102.63
2023-10-15T15:58:39.177Z,100106.46
2023-10-15T16:01:09.222Z,100112.72
2023-10-15T16:03:50.798Z,100118.13
2023-10-15T16:06:17.426Z,100118.69
2023-10-15T16:08:46.753Z,100127.02
2023-10-15T16:11:17.021Z,100130.05
2023-10-15T16:13:45.755Z,100128.59
2023-10-15T16:16:15.162Z,100131.63
2023-10-15T16:18:43.654Z,100136.17
2023-10-15T16:21:12.164Z,100141.20
2023-10-15T16:23:40.614Z,100141.40
2023-10-15T16:26:09.000Z,100143.67
2023-10-15T16:28:37.462Z,100150.57
2023-10-15T16:31:06.331Z,100154.41
2023-10-15T16:33:34.852Z,100163.34
2023-10-15T16:36:05.776Z,100167.86
2023-10-15T16:38:34.414Z,100168.20
2023-10-15T16:41:03.061Z,100170.97
2023-10-15T16:43:32.518Z,100174.67
2023-10-15T16:46:01.717Z,100174.36
2023-10-15T16:48:30.507Z,100176.34
2023-10-15T16:51:13.841Z,100174.12
2023-10-15T16:53:50.278Z,100179.13
2023-10-15T16:56:19.058Z,100180.63
2023-10-15T17:01:37.259Z,100196.05
2023-10-15T17:04:06.523Z,100196.98
2023-10-15T17:06:35.363Z,100201.81
2023-10-15T17:09:06.148Z,100203.55
2023-10-15T17:11:34.758Z,100210.48
2023-10-15T17:14:03.210Z,100212.89
2023-10-15T17:16:31.817Z,100208.98
2023-10-15T17:19:00.281Z,100212.45
2023-10-15T17:23:03.076Z,100210.25
2023-10-15T17:25:32.081Z,100213.15
2023-10-15T17:28:00.577Z,100217.71
2023-10-15T17:30:29.157Z,100215.15
2023-10-15T17:32:57.707Z,100215.01
2023-10-15T17:35:27.084Z,100214.38
2023-10-15T17:37:55.520Z,100215.50
2023-10-15T17:40:23.998Z,100216.11
2023-10-15T17:42:52.418Z,100221.65
2023-10-15T17:45:24.946Z,100217.24
2023-10-15T17:47:57.531Z,100221.28
2023-10-15T17:50:26.754Z,100222.37
2023-10-15T17:52:55.698Z,100225.29
2023-10-15T17:55:30.013Z,100228.69
2023-10-15T17:57:58.475Z,100230.20
2023-10-15T18:00:28.399Z,100231.60
2023-10-15T18:02:57.030Z,100229.66
2023-10-15T18:05:25.803Z,100229.92
2023-10-15T18:07:54.491Z,100231.06
2023-10-15T18:10:23.530Z,100234.45
2023-10-15T18:12:53.712Z,100237.27
2023-10-15T18:15:22.194Z,100238.42
2023-10-15T18:17:50.767Z,100237.36
2023-10-15T18:20:20.169Z,100237.84
2023-10-15T18:22:49.145Z,100240.27
2023-10-15T18:25:18.048Z,100248.10
2023-10-15T18:27:46.512Z,100246.47
2023-10-15T18:30:15.211Z,100246.33
2023-10-15T18:32:43.657Z,100251.94
2023-10-15T18:35:16.926Z,100250.83
2023-10-15T18:37:45.591Z,100257.70
2023-10-15T18:40:15.593Z,100263.37
2023-10-15T18:42:44.331Z,100268.52
2023-10-15T18:45:13.394Z,100272.09
2023-10-15T18:47:41.859Z,100275.05
2023-10-15T18:50:11.336Z,100274.80
2023-10-15T18:52:40.508Z,100274.49
2023-10-15T18:55:10.882Z,100274.77
2023-10-15T18:57:40.021Z,100278.85
2023-10-15T19:00:09.173Z,100285.88
2023-10-15T19:02:37.654Z,100283.79
2023-10-15T19:05:06.331Z,100287.17
2023-10-15T19:07:34.745Z,100290.44
2023-10-15T19:10:04.844Z,100295.48
2023-10-15T19:12:36.097Z,100297.57
2023-10-15T19:15:05.304Z,100297.92
2023-10-15T19:17:33.630Z,100298.95
2023-10-15T19:20:09.839Z,100299.23
2023-10-15T19:22:40.311Z,100295.56
2023-10-15T19:25:08.675Z,100298.89
2023-10-15T19:27:37.218Z,100303.20
2023-10-15T19:30:07.925Z,100311.02
2023-10-15T19:32:36.431Z,100311.34
2023-10-15T19:35:05.879Z,100310.30
2023-10-15T19:37:36.207Z,100318.80
2023-10-15T19:40:12.572Z,100319.58
2023-10-15T19:42:41.056Z,100320.42
2023-10-15T19:45:10.847Z,100326.27
2023-10-15T19:47:39.374Z,100325.02
2023-10-15T19:50:08.098Z,100328.99
2023-10-15T19:52:36.446Z,100321.05
2023-10-15T19:55:06.256Z,100327.76
2023-10-15T19:57:35.477Z,100322.64
2023-10-15T20:00:19.567Z,100324.50
2023-10-15T20:02:48.722Z,100330.08
2023-10-15T20:05:17.517Z,100331.02
2023-10-15T20:07:46.057Z,100329.34
2023-10-15T20:10:18.732Z,100333.06
2023-10-15T20:12:50.117Z,100336.64
2023-10-15T20:15:20.588Z,100340.16
2023-10-15T20:17:50.030Z,100337.60
2023-10-15T20:20:20.956Z,100343.52
2023-10-15T20:22:49.337Z,100353.73
2023-10-15T20:25:20.013Z,100355.27
2023-10-15T20:27:49.819Z,100361.41
2023-10-15T20:30:18.856Z,100360.94
2023-10-15T20:32:56.103Z,100366.98
2023-10-15T20:35:25.678Z,100364.14
2023-10-15T20:37:55.911Z,100368.37
2023-10-15T20:40:27.275Z,100373.59
2023-10-15T20:42:56.315Z,100371.52
2023-10-15T20:45:27.026Z,100374.38
2023-10-15T20:47:55.824Z,100376.19
2023-10-15T20:50:24.815Z,100377.57
2023-10-15T20:52:53.269Z,100380.72
2023-10-15T20:55:21.700Z,100384.86
2023-10-15T20:57:52.223Z,100384.58
2023-10-15T21:00:21.704Z,100385.63
2023-10-15T21:02:51.495Z,100384.41
2023-10-15T21:05:20.311Z,100383.69
2023-10-15T21:07:50.986Z,100386.65
2023-10-15T21:10:23.165Z,100385.01
2023-10-15T21:12:52.612Z,100386.05
2023-10-15T21:15:21.335Z,100390.61
2023-10-15T21:17:49.708Z,100393.44
2023-10-15T21:20:19.045Z,100393.91
2023-10-15T21:22:47.571Z,100392.45
2023-10-15T21:25:16.611Z,100391.02
2023-10-15T21:27:45.322Z,100389.04
2023-10-15T21:30:14.992Z,100394.44
2023-10-15T21:32:43.826Z,100393.97
2023-10-15T21:35:12.414Z,100393.43
2023-10-15T21:37:41.686Z,100393.67
2023-10-15T21:40:15.876Z,100391.89
2023-10-15T21:42:45.370Z,100390.48
2023-10-15T21:45:14.049Z,100386.51
2023-10-15T21:47:43.700Z,100388.79
2023-10-15T21:50:17.171Z,100391.55
2023-10-15T21:52:48.652Z,100398.00
2023-10-15T21:55:17.148Z,100398.20
2023-10-15T21:57:45.636Z,100397.19
2023-10-15T22:00:29.316Z,100403.67
2023-10-15T22:02:58.478Z,100406.39
2023-10-15T22:05:27.259Z,100406.79
2023-10-15T22:07:55.610Z,100406.29
2023-10-15T22:10:27.751Z,100410.63
2023-10-15T22:12:57.365Z,100410.27
2023-10-15T22:15:26.782Z,100412.20
2023-10-15T22:17:58.245Z,100409.95
2023-10-15T22:20:29.490Z,100410.45
2023-10-15T22:22:59.304Z,100406.33
2023-10-15T22:25:27.826Z,100415.53
2023-10-15T22:28:02.897Z,100411.52
2023-10-15T22:30:39.198Z,100410.47
2023-10-15T22:33:11.087Z,100413.80
2023-10-15T22:35:42.357Z,100408.73
2023-10-15T22:38:15.995Z,100414.45
2023-10-15T22:40:45.234Z,100414.41
2023-10-15T22:43:14.396Z,100415.61
2023-10-15T22:45:43.001Z,100414.59
2023-10-15T22:48:14.165Z,100424.21
2023-10-15T22:50:46.516Z,100419.61
2023-10-15T22:53:18.219Z,100425.71
2023-10-15T22:55:47.690Z,100426.80
2023-10-15T22:58:19.367Z,100430.13
2023-10-15T23:00:51.822Z,100428.16
2023-10-15T23:03:21.569Z,100426.02
2023-10-15T23:05:53.629Z,100427.31
2023-10-15T23:08:22.740Z,100426.89
2023-10-15T23:10:51.558Z,100430.79
2023-10-15T23:13:20.238Z,100433.30
2023-10-15T23:15:48.807Z,100432.08
2023-10-15T23:18:21.879Z,100434.61
2023-10-15T23:20:53.606Z,100435.89
2023-10-15T23:23:22.761Z,100434.87
2023-10-15T23:25:53.252Z,100438.33
2023-10-15T23:28:25.062Z,100437.09
2023-10-15T23:30:57.779Z,100443.90
2023-10-15T23:33:30.388Z,100441.98
2023-10-15T23:36:00.345Z,100443.52
2023-10-15T23:38:29.083Z,100449.73
2023-10-15T23:40:57.642Z,100445.52
2023-10-15T23:43:26.027Z,100449.52
2023-10-15T23:46:07.121Z,100447.27
2023-10-15T23:48:38.804Z,100451.91
2023-10-15T23:51:16.227Z,100452.16
2023-10-15T23:53:45.446Z,100453.88
2023-10-15T23:56:24.534Z,100452.67
2023-10-15T23:58:58.946Z,100459.54
